Time;durP1;ratioP1;P1;durP2;ratioP2;P2;SDS_P1;SDS_P2;PMS_P1;PMS_P2;Temp;Humidity;BMP_temperature;BMP_pressure;BME280_temperature;BME280_humidity;BME280_pressure;Samples;Min_cycle;Max_cycle;Signal;HPM_P1;HPM_P2
2021/07/01 00:01:50;;;;;;;7.05;6.35;;;;;;;17.02;71.50;100397.53;1613970;88;21082;-85
2021/07/01 00:04:26;;;;;;;8.13;6.60;;;;;;;16.99;71.60;100396.24;1613263;88;21087;-85
2021/07/01 00:06:53;;;;;;;8.28;6.08;;;;;;;16.97;71.69;100401.11;1613859;88;21075;-85
2021/07/01 00:09:21;;;;;;;6.90;6.20;;;;;;;16.96;71.70;100396.70;1537396;93;21218;-86
2021/07/01 00:11:49;;;;;;;9.10;6.20;;;;;;;16.95;71.71;100400.25;1537461;93;21688;-86
2021/07/01 00:14:20;;;;;;;7.40;5.85;;;;;;;16.92;71.74;100398.50;1537371;93;21246;-86
2021/07/01 00:16:46;;;;;;;8.10;6.15;;;;;;;16.89;71.80;100391.44;1536941;92;21850;-86
2021/07/01 00:19:26;;;;;;;6.20;5.60;;;;;;;16.88;71.89;100394.11;1517513;93;21109;-86
2021/07/01 00:21:53;;;;;;;7.28;6.10;;;;;;;16.86;71.93;100386.59;1513854;94;21140;-86
2021/07/01 00:24:20;;;;;;;5.97;5.37;;;;;;;16.84;72.01;100388.38;1513564;94;21726;-86
2021/07/01 00:26:46;;;;;;;8.58;5.58;;;;;;;16.83;72.10;100390.58;1512877;94;21120;-86
2021/07/01 00:29:13;;;;;;;6.03;5.03;;;;;;;16.83;72.19;100383.94;1510917;93;21856;-86
2021/07/01 00:31:40;;;;;;;6.35;5.20;;;;;;;16.83;72.21;100382.16;1511046;93;21149;-86
2021/07/01 00:34:06;;;;;;;5.53;4.92;;;;;;;16.82;72.19;100375.09;1550007;90;21097;-85
2021/07/01 00:36:33;;;;;;;11.05;5.22;;;;;;;16.80;72.29;100371.53;1682802;83;21168;-85
2021/07/01 00:39:00;;;;;;;7.30;4.95;;;;;;;16.80;72.38;100371.53;1700694;84;21036;-86
2021/07/01 00:41:26;;;;;;;5.95;5.15;;;;;;;16.81;72.42;100371.08;1700740;83;21708;-86
2021/07/01 00:43:53;;;;;;;4.95;4.45;;;;;;;16.81;72.47;100372.41;1700820;84;21018;-86
2021/07/01 00:46:20;;;;;;;6.37;4.20;;;;;;;16.80;72.50;100374.19;1700822;84;21025;-86
2021/07/01 00:48:48;;;;;;;4.58;3.75;;;;;;;16.81;72.52;100364.43;1700755;84;21252;-86
2021/07/01 00:51:15;;;;;;;8.73;4.08;;;;;;;16.79;72.59;100367.09;1700769;84;21093;-85
2021/07/01 00:53:42;;;;;;;5.65;4.08;;;;;;;16.80;72.72;100362.65;1700675;83;21703;-85
2021/07/01 00:56:09;;;;;;;4.00;3.67;;;;;;;16.80;72.74;100359.99;1700616;84;21479;-87
2021/07/01 00:58:37;;;;;;;5.35;3.90;;;;;;;16.80;72.81;100358.24;1700796;84;21475;-86
2021/07/01 01:01:06;;;;;;;5.95;4.08;;;;;;;16.79;72.82;100360.45;1710264;82;21005;-87
2021/07/01 01:03:38;;;;;;;3.83;3.40;;;;;;;16.79;72.84;100357.79;1714876;83;21039;-86
2021/07/01 01:06:06;;;;;;;5.20;4.05;;;;;;;16.79;72.94;100358.25;1714894;83;21760;-86
2021/07/01 01:08:33;;;;;;;6.30;3.77;;;;;;;16.77;72.94;100355.59;1714814;83;21032;-86
2021/07/01 01:10:59;;;;;;;7.12;3.80;;;;;;;16.75;72.99;100355.18;1715015;83;21533;-86
2021/07/01 01:13:26;;;;;;;5.53;3.92;;;;;;;16.74;73.07;100350.73;1715013;83;21056;-86
2021/07/01 01:15:58;;;;;;;4.47;3.87;;;;;;;16.73;73.15;100351.20;1714861;83;21128;-86
2021/07/01 01:18:25;;;;;;;4.60;3.52;;;;;;;16.73;73.18;100351.20;1715001;83;21779;-87
2021/07/01 01:20:53;;;;;;;4.85;3.55;;;;;;;16.70;73.17;100351.20;1714789;83;21016;-87
2021/07/01 01:23:20;;;;;;;4.05;3.65;;;;;;;16.68;73.22;100351.66;1714895;83;21557;-87
2021/07/01 01:25:54;;;;;;;4.30;3.90;;;;;;;16.66;73.40;100357.44;1714868;83;21614;-86
2021/07/01 01:28:25;;;;;;;;;;;;;;;16.63;73.45;100345.48;1717530;83;21052;-88
2021/07/01 01:30:51;;;;;;;8.50;4.28;;;;;;;16.62;73.67;100340.62;1714979;83;21834;-88
2021/07/01 01:33:18;;;;;;;7.17;3.90;;;;;;;16.61;73.80;100345.95;1714921;83;21057;-87
2021/07/01 01:35:45;;;;;;;4.37;3.80;;;;;;;16.60;73.76;100336.23;1714910;83;21181;-87
2021/07/01 01:38:13;;;;;;;6.40;3.95;;;;;;;16.59;73.83;100340.67;1714899;83;21036;-87
2021/07/01 01:40:40;;;;;;;4.90;3.92;;;;;;;16.57;73.93;100339.77;1714858;83;21025;-86
2021/07/01 01:43:07;;;;;;;5.22;3.72;;;;;;;16.55;73.97;100337.56;1715004;82;22623;-87
2021/07/01 01:45:38;;;;;;;6.65;4.25;;;;;;;16.54;74.05;100339.80;1714778;83;21032;-87
2021/07/01 01:48:05;;;;;;;8.68;4.60;;;;;;;16.53;74.12;100330.05;1714906;83;21128;-86
2021/07/01 01:50:32;;;;;;;6.65;3.95;;;;;;;16.50;74.11;100335.41;1714882;83;21063;-90
2021/07/01 01:52:58;;;;;;;4.42;3.80;;;;;;;16.48;74.22;100334.08;1686674;83;21652;-90
2021/07/01 01:55:25;;;;;;;4.40;3.62;;;;;;;16.50;74.30;100326.11;1714853;83;21513;-90
2021/07/01 01:57:52;;;;;;;5.97;4.03;;;;;;;16.48;74.29;100327.44;1714832;82;21080;-90
2021/07/01 02:00:23;;;;;;;5.05;3.98;;;;;;;16.47;74.36;100326.11;1714683;83;21080;-91
2021/07/01 02:02:50;;;;;;;4.53;3.65;;;;;;;16.46;74.44;100322.58;1681024;83;21830;-91
2021/07/01 02:05:18;;;;;;;3.67;3.35;;;;;;;16.47;74.46;100319.47;1714901;83;21087;-91
2021/07/01 02:07:45;;;;;;;4.70;3.50;;;;;;;16.46;74.51;100318.60;1714882;83;22630;-91
2021/07/01 02:10:21;;;;;;;4.80;3.72;;;;;;;16.45;74.54;100318.61;1714806;83;21064;-90
2021/07/01 02:12:48;;;;;;;5.60;3.98;;;;;;;16.46;74.59;100317.27;1714832;83;21092;-90
2021/07/01 02:15:17;;;;;;;4.83;3.83;;;;;;;16.45;74.62;100317.27;1714896;83;21065;-90
2021/07/01 02:17:44;;;;;;;4.28;3.87;;;;;;;16.44;74.62;100319.06;1714769;82;21044;-89
2021/07/01 02:20:13;;;;;;;7.35;3.47;;;;;;;16.45;74.65;100319.48;1715026;83;21765;-89
2021/07/01 02:22:40;;;;;;;4.97;3.67;;;;;;;16.46;74.70;100307.97;1715102;83;21336;-89
2021/07/01 02:25:07;;;;;;;5.47;4.03;;;;;;;16.48;74.70;100318.14;1714818;83;21044;-91
2021/07/01 02:27:36;;;;;;;9.80;4.17;;;;;;;16.48;74.69;100307.97;1714689;83;21001;-92
2021/07/01 02:30:06;;;;;;;4.58;4.08;;;;;;;16.49;74.76;100307.06;1714948;83;21021;-92
2021/07/01 02:32:32;;;;;;;6.35;3.90;;;;;;;16.54;74.80;100308.37;1714954;83;21775;-96
2021/07/01 02:34:59;;;;;;;5.65;3.65;;;;;;;16.57;74.75;100312.32;1663840;83;21044;-96
2021/07/01 02:38:10;;;;;;;;;;;;;;;;;;;;;
2021/07/01 02:40:44;;;;;;;6.05;3.92;;;;;;;16.54;74.69;100300.41;1654990;84;21104;-92
2021/07/01 02:43:44;;;;;;;;;;;;;;;;;;;;;
2021/07/01 02:46:05;;;;;;;6.00;4.33;;;;;;;16.67;74.69;100314.04;1664740;85;21173;-89
2021/07/01 02:48:50;;;;;;;6.03;4.70;;;;;;;16.68;74.62;100322.43;1671402;84;21142;-91
2021/07/01 02:51:17;;;;;;;4.62;4.20;;;;;;;16.69;74.65;100318.89;1644314;87;21134;-91
2021/07/01 02:53:44;;;;;;;6.37;4.72;;;;;;;16.74;74.66;100316.19;1643855;87;21639;-90
2021/07/01 02:56:11;;;;;;;5.05;4.10;;;;;;;16.76;74.60;100313.98;1671962;84;21101;-90
2021/07/01 02:58:37;;;;;;;7.20;5.00;;;;;;;16.79;74.66;100309.08;1672088;85;22565;-91
2021/07/01 03:01:04;;;;;;;7.08;4.72;;;;;;;16.88;74.70;100316.55;1671747;84;21053;-92
2021/07/01 03:03:31;;;;;;;5.60;4.33;;;;;;;16.92;74.58;100316.09;1671868;84;21543;-90
2021/07/01 03:05:58;;;;;;;8.23;4.62;;;;;;;16.99;74.51;100324.45;1672137;85;21051;-86
2021/07/01 03:08:25;;;;;;;9.28;4.78;;;;;;;17.07;74.50;100331.03;1671905;84;21092;-85
2021/07/01 03:10:51;;;;;;;10.00;5.00;;;;;;;17.14;74.43;100327.89;1671824;84;22586;-84
2021/07/01 03:13:18;;;;;;;7.60;4.42;;;;;;;17.20;74.33;100324.71;1671676;84;21050;-84
2021/07/01 03:15:45;;;;;;;7.72;4.65;;;;;;;17.26;74.26;100324.64;1671909;85;21101;-85
2021/07/01 03:18:11;;;;;;;6.95;4.35;;;;;;;17.34;74.16;100325.91;1707490;82;21388;-86
2021/07/01 03:20:38;;;;;;;7.72;4.58;;;;;;;17.40;74.11;100326.29;1717921;82;21079;-86
2021/07/01 03:23:05;;;;;;;6.60;4.50;;;;;;;17.48;74.08;100324.00;1717790;83;22572;-86
2021/07/01 03:25:32;;;;;;;6.75;4.55;;;;;;;17.57;73.95;100331.02;1717984;83;21038;-86
2021/07/01 03:27:59;;;;;;;11.93;5.28;;;;;;;17.67;73.87;100320.69;1717720;83;21012;-86
2021/07/01 03:30:45;;;;;;;5.00;4.50;;;;;;;17.81;73.84;100322.31;1717825;83;21048;-86
2021/07/01 03:33:12;;;;;;;8.15;4.45;;;;;;;18.39;75.53;100323.38;1717852;83;20965;-86
2021/07/01 03:35:53;;;;;;;4.08;3.67;;;;;;;20.51;76.86;100310.66;1717851;83;21747;-87
2021/07/01 03:38:20;;;;;;;7.33;3.83;;;;;;;22.17;73.96;100317.52;1717506;83;21068;-86
2021/07/01 03:40:47;;;;;;;6.42;4.03;;;;;;;23.91;71.99;100319.88;1717798;83;21032;-86
2021/07/01 03:43:15;;;;;;;5.83;3.90;;;;;;;24.60;68.04;100315.42;1717769;82;21080;-86
2021/07/01 03:45:42;;;;;;;7.95;4.17;;;;;;;24.33;65.33;100310.66;1717739;83;21104;-86
2021/07/01 03:48:10;;;;;;;4.47;3.42;;;;;;;23.81;64.30;100320.22;1698942;83;42190;-86
2021/07/01 03:50:37;;;;;;;4.53;3.50;;;;;;;23.75;64.81;100323.10;1717488;82;21607;-86
2021/07/01 03:53:03;;;;;;;5.55;4.00;;;;;;;24.56;65.18;100321.87;1717715;83;21060;-87
2021/07/01 03:55:30;;;;;;;3.15;2.85;;;;;;;26.13;65.16;100316.54;1717771;83;21557;-88
2021/07/01 03:57:57;;;;;;;5.62;3.42;;;;;;;27.15;62.03;100319.73;1709352;83;21086;-88
2021/07/01 04:00:23;;;;;;;5.90;3.30;;;;;;;28.32;61.39;100304.09;1677964;84;21775;-89
2021/07/01 04:02:50;;;;;;;6.37;3.42;;;;;;;29.58;59.64;100308.08;1688570;84;21070;-86
2021/07/01 04:05:17;;;;;;;5.87;2.85;;;;;;;31.15;57.86;100302.13;1691357;84;21059;-90
2021/07/01 04:07:44;;;;;;;4.78;3.22;;;;;;;32.71;55.50;100309.19;1691320;84;21576;-91
2021/07/01 04:10:15;;;;;;;8.25;2.90;;;;;;;34.01;53.08;100312.88;1691958;84;20995;-92
2021/07/01 04:12:41;;;;;;;6.55;2.90;;;;;;;35.20;51.04;100324.55;1691417;84;21797;-90
2021/07/01 04:15:08;;;;;;;6.08;3.12;;;;;;;36.46;48.92;100320.86;1691607;84;21107;-92
2021/07/01 04:17:36;;;;;;;5.17;3.02;;;;;;;36.45;45.64;100322.71;1691337;84;21067;-88
2021/07/01 04:20:05;;;;;;;5.45;3.10;;;;;;;35.30;44.14;100334.20;1691301;84;21177;-89
2021/07/01 04:22:31;;;;;;;5.17;3.00;;;;;;;33.86;43.80;100332.72;1691354;84;21090;-90
2021/07/01 04:24:58;;;;;;;12.93;3.50;;;;;;;32.57;43.95;100333.89;1691458;84;21755;-86
2021/07/01 04:27:25;;;;;;;5.20;3.47;;;;;;;31.37;43.92;100333.66;1691325;84;21042;-87
2021/07/01 04:29:52;;;;;;;5.78;3.30;;;;;;;30.06;44.35;100339.09;1691394;84;21007;-88
2021/07/01 04:32:19;;;;;;;8.70;4.58;;;;;;;28.89;45.17;100346.95;1691265;84;21066;-88
2021/07/01 04:34:45;;;;;;;5.80;3.77;;;;;;;27.91;45.84;100355.48;1691283;84;21035;-86
2021/07/01 04:37:12;;;;;;;4.65;3.37;;;;;;;26.89;46.53;100357.02;1717194;81;21752;-86
2021/07/01 04:39:38;;;;;;;4.28;3.60;;;;;;;26.09;47.64;100362.14;1733071;82;21027;-86
2021/07/01 04:42:05;;;;;;;10.53;3.72;;;;;;;25.44;48.44;100363.21;1733112;82;21024;-86
2021/07/01 04:44:35;;;;;;;6.30;3.77;;;;;;;24.75;49.26;100361.52;1718237;82;21731;-86
2021/07/01 04:47:02;;;;;;;4.67;3.62;;;;;;;24.18;50.17;100364.56;1733064;82;21098;-86
2021/07/01 04:49:28;;;;;;;7.40;4.08;;;;;;;23.80;51.13;100371.33;1733167;82;21733;-88
2021/07/01 04:51:55;;;;;;;5.47;3.95;;;;;;;23.47;51.70;100364.85;1733369;82;21524;-87
2021/07/01 04:54:21;;;;;;;4.08;3.47;;;;;;;23.17;52.38;100374.83;1733469;82;21063;-86
2021/07/01 04:56:48;;;;;;;5.85;4.12;;;;;;;22.93;53.02;100371.09;1733465;82;21059;-87
2021/07/01 04:59:17;;;;;;;8.80;4.50;;;;;;;22.70;53.42;100365.53;1733444;82;21047;-88
2021/07/01 05:01:44;;;;;;;5.30;4.05;;;;;;;22.49;53.92;100371.57;1733250;82;22612;-84
2021/07/01 05:04:12;;;;;;;4.70;4.30;;;;;;;22.24;54.41;100365.56;1733144;82;20997;-86
2021/07/01 05:06:40;;;;;;;3.90;3.58;;;;;;;22.02;54.94;100351.03;1733407;82;21044;-87
2021/07/01 05:09:06;;;;;;;5.08;3.70;;;;;;;21.90;55.48;100347.78;1718792;82;21008;-86
2021/07/01 05:11:34;;;;;;;5.75;3.67;;;;;;;21.79;55.82;100344.52;1733561;82;21133;-88
2021/07/01 05:14:03;;;;;;;5.25;3.22;;;;;;;21.74;56.30;100345.97;1718678;82;22464;-86
2021/07/01 05:16:32;;;;;;;4.72;4.28;;;;;;;21.69;56.63;100348.36;1732620;82;21082;-88
2021/07/01 05:18:58;;;;;;;7.47;3.80;;;;;;;21.66;56.89;100354.69;1732720;82;21522;-89
2021/07/01 05:21:25;;;;;;;4.08;3.42;;;;;;;21.57;57.10;100355.37;1732957;82;21027;-87
2021/07/01 05:23:52;;;;;;;4.72;3.83;;;;;;;21.47;57.41;100365.02;1733293;82;21054;-86
2021/07/01 05:26:18;;;;;;;3.98;3.55;;;;;;;21.46;57.73;100368.60;1733202;82;21752;-87
2021/07/01 05:28:45;;;;;;;4.10;3.27;;;;;;;21.42;57.95;100368.23;1733250;82;21027;-85
2021/07/01 05:31:12;;;;;;;3.58;3.22;;;;;;;21.39;58.04;100366.09;1733502;82;21019;-85
2021/07/01 05:33:39;;;;;;;4.45;3.65;;;;;;;21.41;58.25;100367.80;1733533;82;21098;-87
2021/07/01 05:36:05;;;;;;;4.72;3.02;;;;;;;21.42;58.38;100364.69;1733705;82;21471;-88
2021/07/01 05:38:32;;;;;;;7.85;3.05;;;;;;;21.48;58.52;100363.22;1733387;82;21698;-86
2021/07/01 05:40:59;;;;;;;4.83;3.30;;;;;;;21.55;58.56;100361.67;1733630;82;20992;-88
2021/07/01 05:43:25;;;;;;;3.10;2.80;;;;;;;21.66;58.61;100360.05;1733619;82;21095;-89
2021/07/01 05:45:53;;;;;;;3.60;3.30;;;;;;;21.80;58.70;100356.98;1733521;82;21051;-88
2021/07/01 05:48:20;;;;;;;4.37;3.27;;;;;;;21.94;58.69;100357.92;1733400;82;22233;-88
2021/07/01 05:50:54;;;;;;;2.90;2.67;;;;;;;22.30;59.01;100365.41;1718868;82;22188;-87
2021/07/01 05:53:24;;;;;;;5.83;3.70;;;;;;;22.94;58.71;100364.34;1731977;82;21023;-90
2021/07/01 05:55:44;;;;;;;8.25;3.10;;;;;;;23.48;58.12;100355.40;1717478;82;21799;-90
2021/07/01 05:58:11;;;;;;;3.45;3.05;;;;;;;23.98;57.53;100347.81;1733266;82;21110;-87
2021/07/01 06:01:19;;;;;;;7.37;3.33;;;;;;;24.50;56.94;100347.66;1733536;82;21087;-89
2021/07/01 06:03:46;;;;;;;5.35;3.00;;;;;;;25.02;56.24;100346.07;1732955;82;21854;-87
2021/07/01 06:06:13;;;;;;;5.65;3.50;;;;;;;25.40;55.34;100348.51;1732990;82;21403;-89
2021/07/01 06:08:40;;;;;;;5.45;3.80;;;;;;;25.75;54.80;100348.80;1730632;82;21055;-88
2021/07/01 06:11:07;;;;;;;5.83;3.40;;;;;;;25.99;54.13;100347.30;1725561;83;21112;-87
2021/07/01 06:13:37;;;;;;;4.58;2.90;;;;;;;26.15;53.68;100351.55;1725717;83;21055;-88
2021/07/01 06:16:05;;;;;;;2.95;2.72;;;;;;;26.08;53.10;100360.86;1725655;83;21763;-90
2021/07/01 06:18:45;;;;;;;7.80;3.25;;;;;;;25.88;52.89;100368.45;1725639;83;21456;-95
2021/07/01 06:21:12;;;;;;;3.22;2.92;;;;;;;25.55;52.56;100369.02;1725640;83;21024;-89
2021/07/01 06:23:39;;;;;;;5.15;3.30;;;;;;;25.16;52.82;100363.86;1725412;82;21144;-88
2021/07/01 06:26:12;;;;;;;3.60;3.10;;;;;;;24.88;52.92;100364.59;1725760;83;21016;-91
2021/07/01 06:28:40;;;;;;;4.17;3.77;;;;;;;24.68;53.19;100364.91;1726067;83;21840;-90
2021/07/01 06:31:10;;;;;;;4.50;3.12;;;;;;;24.52;53.39;100370.03;1725732;83;21722;-92
2021/07/01 06:33:39;;;;;;;4.92;3.72;;;;;;;24.64;53.99;100364.62;1725843;83;21020;-90
2021/07/01 06:36:17;;;;;;;4.25;3.85;;;;;;;25.00;53.96;100369.02;1725996;83;21072;-93
2021/07/01 06:38:49;;;;;;;5.80;3.95;;;;;;;25.35;53.77;100363.12;1726030;83;21012;-88
2021/07/01 06:41:17;;;;;;;9.25;7.00;;;;;;;25.75;53.29;100365.42;1725926;83;22500;-90
2021/07/01 06:43:48;;;;;;;4.40;4.00;;;;;;;26.09;52.79;100370.68;1725973;83;20989;-89
2021/07/01 06:46:19;;;;;;;4.15;3.77;;;;;;;26.05;51.88;100367.73;1699176;83;21028;-89
2021/07/01 06:48:51;;;;;;;5.65;3.87;;;;;;;25.95;51.99;100372.67;1725966;83;21602;-89
2021/07/01 06:51:19;;;;;;;6.50;4.85;;;;;;;25.89;51.65;100373.78;1722696;83;21008;-89
2021/07/01 06:53:47;;;;;;;4.17;3.72;;;;;;;25.76;51.52;100373.45;1671963;83;21028;-87
2021/07/01 06:56:13;;;;;;;5.60;3.30;;;;;;;25.68;51.65;100371.57;1725617;83;21000;-87
2021/07/01 06:58:42;;;;;;;4.05;3.65;;;;;;;25.72;51.61;100368.27;1725805;83;21087;-88
2021/07/01 07:01:10;;;;;;;4.22;3.85;;;;;;;25.87;51.67;100369.41;1699546;83;21136;-86
2021/07/01 07:03:36;;;;;;;4.08;3.75;;;;;;;26.04;51.61;100371.39;1717963;83;21032;-87
2021/07/01 07:06:04;;;;;;;3.77;3.35;;;;;;;26.15;51.33;100368.59;1714328;83;21819;-88
2021/07/01 07:08:30;;;;;;;5.55;4.17;;;;;;;26.16;50.95;100373.50;1714537;83;21060;-89
2021/07/01 07:10:58;;;;;;;3.60;3.30;;;;;;;26.08;51.03;100369.81;1714182;83;21068;-89
2021/07/01 07:13:25;;;;;;;6.15;3.65;;;;;;;26.12;51.10;100372.77;1688396;83;21017;-89
2021/07/01 07:15:55;;;;;;;8.08;4.05;;;;;;;26.31;51.03;100378.67;1714733;83;21000;-90
2021/07/01 07:18:26;;;;;;;4.12;3.55;;;;;;;26.45;50.66;100376.70;1714143;83;22767;-93
2021/07/01 07:20:59;;;;;;;4.10;3.70;;;;;;;26.48;50.40;100384.62;1714160;83;21040;-89
2021/07/01 07:23:35;;;;;;;6.67;3.65;;;;;;;26.44;50.21;100381.20;1715139;83;25233;-90
2021/07/01 07:26:08;;;;;;;4.37;3.95;;;;;;;26.48;50.23;100390.03;1714952;83;21123;-91
2021/07/01 07:28:37;;;;;;;4.80;3.93;;;;;;;26.55;50.23;100393.71;1714870;83;21069;-93
2021/07/01 07:31:03;;;;;;;4.28;3.85;;;;;;;26.67;50.00;100385.56;1714883;83;21358;-89
2021/07/01 07:33:36;;;;;;;4.58;3.58;;;;;;;26.61;49.72;100391.23;1714908;83;21044;-96
2021/07/01 07:36:01;;;;;;;4.85;3.87;;;;;;;26.49;49.65;100389.96;1689285;83;21028;-89
2021/07/01 07:38:28;;;;;;;4.58;4.17;;;;;;;26.51;49.81;100392.11;1714961;83;21134;-94
2021/07/01 07:40:55;;;;;;;5.75;3.92;;;;;;;26.56;49.80;100393.27;1688662;83;21083;-90
2021/07/01 07:43:22;;;;;;;4.95;3.83;;;;;;;26.61;49.69;100397.98;1714677;83;21824;-88
2021/07/01 07:45:50;;;;;;;4.25;3.72;;;;;;;26.82;49.91;100389.31;1714351;83;21001;-84
2021/07/01 07:48:20;;;;;;;5.92;3.55;;;;;;;27.03;49.77;100393.27;1714288;83;21087;-89
2021/07/01 07:50:52;;;;;;;3.52;3.22;;;;;;;27.15;49.28;100396.73;1658217;83;21166;-85
2021/07/01 07:53:31;;;;;;;3.27;2.98;;;;;;;27.13;49.04;100395.45;1714498;83;21056;-87
2021/07/01 07:56:04;;;;;;;3.30;3.00;;;;;;;27.29;48.68;100397.42;1714571;83;21793;-91
2021/07/01 07:58:34;;;;;;;;;;;;;;;27.45;48.36;100402.45;1717103;83;21569;-90
2021/07/01 08:01:08;;;;;;;4.97;2.85;;;;;;;27.62;48.02;100398.02;1714057;83;20225;-89
2021/07/01 08:03:35;;;;;;;3.77;2.92;;;;;;;27.78;47.76;100401.69;1713018;83;21193;-89
2021/07/01 08:06:05;;;;;;;3.90;3.50;;;;;;;27.90;47.41;100398.84;1686240;83;21455;-86
2021/07/01 08:08:46;;;;;;;2.83;2.55;;;;;;;27.97;47.00;100412.44;1688594;83;21006;-87
2021/07/01 08:11:12;;;;;;;3.60;3.25;;;;;;;27.94;46.88;100418.00;1713178;83;20958;-90
2021/07/01 08:13:40;;;;;;;6.60;5.65;;;;;;;27.83;46.71;100418.52;1712447;83;21092;-83
2021/07/01 08:16:07;;;;;;;3.95;3.42;;;;;;;27.54;46.58;100430.37;1712189;83;21084;-85
2021/07/01 08:18:39;;;;;;;5.05;2.87;;;;;;;27.31;46.62;100428.84;1712630;83;21553;-87
2021/07/01 08:21:06;;;;;;;10.60;3.33;;;;;;;27.24;46.99;100426.00;1712136;83;21841;-85
2021/07/01 08:23:33;;;;;;;3.45;3.10;;;;;;;27.28;47.12;100420.88;1712402;83;21053;-85
2021/07/01 08:26:03;;;;;;;4.08;2.80;;;;;;;27.28;46.96;100418.66;1712255;83;21463;-88
2021/07/01 08:28:31;;;;;;;3.40;3.00;;;;;;;27.27;47.05;100420.48;1712911;83;21093;-92
2021/07/01 08:31:01;;;;;;;3.12;2.92;;;;;;;27.27;46.82;100414.19;1712881;83;21088;-90
2021/07/01 08:33:31;;;;;;;4.58;2.95;;;;;;;27.33;46.98;100411.20;1711776;83;21962;-92
2021/07/01 08:35:58;;;;;;;5.05;3.12;;;;;;;27.52;47.09;100420.60;1712705;83;21310;-90
2021/07/01 08:38:25;;;;;;;4.75;3.08;;;;;;;27.53;46.73;100418.28;1712523;83;21013;-93
2021/07/01 08:41:01;;;;;;;3.30;2.80;;;;;;;27.46;46.47;100412.78;1712784;83;21233;-93
2021/07/01 08:43:33;;;;;;;3.95;2.90;;;;;;;27.38;46.34;100416.36;1712589;83;21056;-90
2021/07/01 08:46:12;;;;;;;4.45;3.75;;;;;;;27.04;46.17;100408.55;1709452;83;22488;-88
2021/07/01 08:49:07;;;;;;;3.35;3.05;;;;;;;26.91;46.56;100402.86;1712485;83;21064;-93
2021/07/01 08:51:46;;;;;;;4.15;2.72;;;;;;;26.91;46.91;100406.42;1632044;86;21080;-93
2021/07/01 08:54:30;;;;;;;3.10;2.80;;;;;;;27.15;46.85;100415.65;1631934;87;21375;-90
2021/07/01 08:56:56;;;;;;;4.23;2.77;;;;;;;27.27;46.44;100420.48;1632174;87;21201;-95
2021/07/01 08:59:26;;;;;;;3.62;3.20;;;;;;;27.13;46.04;100421.60;1632062;87;21760;-90
2021/07/01 09:01:59;;;;;;;6.22;3.10;;;;;;;27.03;46.32;100418.94;1631909;87;21601;-92
2021/07/01 09:04:31;;;;;;;;;;;;;;;27.03;46.39;100424.34;1642159;86;21069;-92
2021/07/01 09:07:04;;;;;;;3.35;2.37;;;;;;;27.10;46.28;100428.05;1643018;87;21494;-93
2021/07/01 09:09:36;;;;;;;7.62;2.45;;;;;;;27.18;46.05;100434.42;1643448;87;21124;-92
2021/07/01 09:12:06;;;;;;;3.97;3.03;;;;;;;27.09;45.85;100437.57;1643435;87;21896;-92
2021/07/01 09:14:35;;;;;;;2.60;2.15;;;;;;;27.03;45.94;100438.75;1621405;87;21600;-92
2021/07/01 09:17:10;;;;;;;3.27;2.15;;;;;;;26.95;45.82;100443.62;1643215;87;21072;-91
2021/07/01 09:19:39;;;;;;;6.87;2.85;;;;;;;26.89;45.61;100447.49;1643148;87;21056;-91
2021/07/01 09:22:11;;;;;;;4.85;2.70;;;;;;;26.76;45.56;100452.59;1643089;87;21131;-91
2021/07/01 09:24:35;;;;;;;8.28;2.35;;;;;;;26.69;45.76;100443.50;1642652;87;21797;-91
2021/07/01 09:27:05;;;;;;;6.90;2.47;;;;;;;26.77;45.75;100446.74;1621378;87;21080;-92
2021/07/01 09:29:32;;;;;;;4.45;1.98;;;;;;;26.62;45.38;100444.77;1706835;83;21884;-91
2021/07/01 09:31:59;;;;;;;2.60;2.40;;;;;;;26.53;45.97;100439.28;1715192;83;21021;-91
2021/07/01 09:34:25;;;;;;;6.12;2.27;;;;;;;26.56;46.14;100437.31;1686778;83;21115;-91
2021/07/01 09:36:54;;;;;;;2.60;2.40;;;;;;;26.61;46.02;100438.95;1686853;83;21774;-91
2021/07/01 09:39:22;;;;;;;4.72;2.25;;;;;;;26.59;46.06;100437.64;1715345;83;21090;-91
2021/07/01 09:41:49;;;;;;;4.35;2.58;;;;;;;26.62;46.08;100440.72;1714844;83;21061;-91
2021/07/01 09:44:17;;;;;;;3.50;2.40;;;;;;;26.58;46.00;100437.25;1714966;83;20977;-90
2021/07/01 09:46:47;;;;;;;3.85;2.42;;;;;;;26.56;46.10;100435.10;1715415;83;21087;-91
2021/07/01 09:49:17;;;;;;;2.25;2.10;;;;;;;26.48;46.01;100431.38;1714934;83;22685;-90
2021/07/01 09:51:44;;;;;;;5.10;2.80;;;;;;;26.45;46.23;100436.94;1715144;83;21126;-91
2021/07/01 09:54:11;;;;;;;5.30;2.40;;;;;;;26.46;46.36;100435.97;1715335;83;21065;-91
2021/07/01 09:56:41;;;;;;;3.30;2.40;;;;;;;26.44;46.29;100446.45;1715100;83;21640;-91
2021/07/01 09:59:27;;;;;;;24.00;3.20;;;;;;;26.51;46.19;100458.23;1715202;83;21083;-91
2021/07/01 10:01:54;;;;;;;5.67;2.25;;;;;;;26.52;45.79;100446.51;1714734;83;21785;-91
2021/07/01 10:04:21;;;;;;;4.85;2.35;;;;;;;26.47;45.82;100456.63;1714975;83;21025;-91
2021/07/01 10:07:05;;;;;;;2.45;2.00;;;;;;;26.48;46.06;100458.84;1715155;83;21067;-91
2021/07/01 10:09:32;;;;;;;4.30;2.62;;;;;;;26.55;46.17;100454.44;1714680;83;21024;-91
2021/07/01 10:12:00;;;;;;;2.65;2.10;;;;;;;26.74;45.86;100465.30;1715084;83;21474;-90
2021/07/01 10:14:31;;;;;;;2.20;1.95;;;;;;;26.80;45.49;100458.73;1715199;83;22412;-91
2021/07/01 10:17:14;;;;;;;6.70;2.33;;;;;;;26.82;45.38;100461.36;1684102;83;21088;-91
2021/07/01 10:19:42;;;;;;;3.87;2.35;;;;;;;26.77;45.00;100461.59;1715267;83;21292;-91
2021/07/01 10:22:16;;;;;;;4.20;2.30;;;;;;;26.67;45.10;100457.11;1687291;83;21017;-92
2021/07/01 10:24:55;;;;;;;4.65;2.05;;;;;;;26.72;45.37;100460.44;1714742;83;21131;-91
2021/07/01 10:27:41;;;;;;;2.50;2.17;;;;;;;26.77;45.16;100456.19;1685817;83;22464;-91
2021/07/01 10:30:31;;;;;;;2.40;2.20;;;;;;;26.77;45.12;100452.14;1704173;83;21111;-91
2021/07/01 10:32:54;;;;;;;4.60;2.58;;;;;;;26.79;45.01;100447.55;1683977;83;21040;-91
2021/07/01 10:35:26;;;;;;;4.20;2.12;;;;;;;26.87;45.09;100458.84;1715381;83;21188;-92
2021/07/01 10:38:06;;;;;;;19.90;3.52;;;;;;;26.91;44.98;100459.09;1715422;83;20985;-91
2021/07/01 10:40:39;;;;;;;3.52;2.42;;;;;;;26.90;44.70;100460.55;1715235;83;21769;-91
2021/07/01 10:43:06;;;;;;;3.65;2.37;;;;;;;26.81;44.51;100460.50;1687034;83;21045;-91
2021/07/01 10:45:33;;;;;;;5.20;2.87;;;;;;;26.79;44.82;100459.69;1653150;85;21034;-90
2021/07/01 10:48:16;;;;;;;3.25;2.50;;;;;;;26.83;44.79;100461.30;1615429;86;21075;-91
2021/07/01 10:50:44;;;;;;;7.22;2.47;;;;;;;26.87;44.75;100459.33;1639891;86;21094;-91
2021/07/01 10:53:33;;;;;;;3.33;2.20;;;;;;;26.89;44.69;100456.94;1660893;86;22669;-91
2021/07/01 10:56:20;;;;;;;8.58;2.60;;;;;;;26.93;44.78;100454.98;1660976;86;21170;-91
2021/07/01 10:58:57;;;;;;;3.90;2.70;;;;;;;26.99;44.42;100456.51;1641852;85;21035;-91
2021/07/01 11:01:26;;;;;;;4.08;2.42;;;;;;;26.87;44.44;100457.98;1661730;86;21035;-91
2021/07/01 11:04:13;;;;;;;3.50;2.72;;;;;;;26.82;44.61;100451.42;1661485;85;21520;-91
2021/07/01 11:06:46;;;;;;;4.35;2.45;;;;;;;26.90;44.72;100452.44;1661627;86;21825;-92
2021/07/01 11:09:14;;;;;;;3.70;2.50;;;;;;;27.02;44.86;100450.48;1655088;86;21055;-91
2021/07/01 11:11:42;;;;;;;4.28;2.67;;;;;;;27.08;44.50;100454.23;1661291;86;21735;-91
2021/07/01 11:14:13;;;;;;;5.42;3.80;;;;;;;27.09;44.45;100454.64;1661776;85;21083;-91
2021/07/01 11:16:47;;;;;;;4.83;2.52;;;;;;;27.11;44.17;100444.64;1661833;86;21062;-92
2021/07/01 11:19:15;;;;;;;5.92;2.62;;;;;;;27.17;44.17;100445.30;1640700;86;22473;-92
2021/07/01 11:21:52;;;;;;;9.58;2.37;;;;;;;27.14;43.87;100451.25;1661946;86;21031;-92
2021/07/01 11:24:22;;;;;;;4.37;2.55;;;;;;;27.12;43.69;100463.97;1641893;86;21047;-92
2021/07/01 11:27:01;;;;;;;4.03;2.50;;;;;;;27.33;43.91;100455.80;1661381;86;21024;-92
2021/07/01 11:29:44;;;;;;;3.05;2.70;;;;;;;27.49;43.61;100463.52;1640308;86;21082;-91
2021/07/01 11:32:22;;;;;;;5.22;2.15;;;;;;;27.58;43.43;100468.95;1661540;86;22617;-91
2021/07/01 11:34:50;;;;;;;4.35;2.15;;;;;;;27.75;43.19;100464.52;1661708;86;21169;-92
2021/07/01 11:37:56;;;;;;;;;;;;;;;;;;;;;
2021/07/01 11:43:52;;;;;;;3.05;2.47;;;;;;;27.88;42.32;100457.52;1525473;92;21646;-91
2021/07/01 11:46:47;;;;;;;4.37;2.40;;;;;;;28.05;42.38;100457.53;1613794;86;21756;-92